sensor_id;sensor_type;location;lat;lon;timestamp;pressure;altitude;pressure_sealevel;temperature;humidity
40954;BME280;26686;50.130;8.710;2023-05-03T00:04:08;101232.50;;;10.44;51.73
40954;BME280;26686;50.130;8.710;2023-05-03T00:09:10;101227.75;;;10.35;51.82
40954;BME280;26686;50.130;8.710;2023-05-03T00:14:11;101224.50;;;10.30;51.92
40954;BME280;26686;50.130;8.710;2023-05-03T00:19:13;101212.56;;;10.22;51.92
40954;BME280;26686;50.130;8.710;2023-05-03T00:24:28;101210.84;;;10.21;51.99
40954;BME280;26686;50.130;8.710;2023-05-03T00:29:29;101210.84;;;10.21;52.28
40954;BME280;26686;50.130;8.710;2023-05-03T00:34:31;101215.50;;;10.18;52.42
40954;BME280;26686;50.130;8.710;2023-05-03T00:39:32;101211.03;;;10.18;52.62
40954;BME280;26686;50.130;8.710;2023-05-03T00:44:33;101200.78;;;10.12;52.59
40954;BME280;26686;50.130;8.710;2023-05-03T00:49:35;101199.47;;;10.05;52.39
40954;BME280;26686;50.130;8.710;2023-05-03T00:54:36;101196.81;;;10.05;52.71
40954;BME280;26686;50.130;8.710;2023-05-03T00:59:38;101183.88;;;9.99;52.91
40954;BME280;26686;50.130;8.710;2023-05-03T01:04:40;101184.47;;;9.89;52.61
40954;BME280;26686;50.130;8.710;2023-05-03T01:10:00;101190.00;;;9.86;52.93
40954;BME280;26686;50.130;8.710;2023-05-03T01:15:15;101188.47;;;9.82;53.14
40954;BME280;26686;50.130;8.710;2023-05-03T01:20:21;101183.63;;;9.75;53.25
40954;BME280;26686;50.130;8.710;2023-05-03T01:25:25;101179.34;;;9.72;53.31
40954;BME280;26686;50.130;8.710;2023-05-03T01:30:29;101176.47;;;9.61;53.67
40954;BME280;26686;50.130;8.710;2023-05-03T01:35:56;101177.25;;;9.63;53.45
40954;BME280;26686;50.130;8.710;2023-05-03T01:41:03;101167.41;;;9.50;53.91
40954;BME280;26686;50.130;8.710;2023-05-03T01:46:06;101172.31;;;9.57;53.57
40954;BME280;26686;50.130;8.710;2023-05-03T01:51:08;101156.94;;;9.47;53.89
40954;BME280;26686;50.130;8.710;2023-05-03T01:56:09;101170.41;;;9.44;53.93
40954;BME280;26686;50.130;8.710;2023-05-03T02:01:11;101161.59;;;9.44;53.83
40954;BME280;26686;50.130;8.710;2023-05-03T02:06:13;101159.59;;;9.33;54.07
40954;BME280;26686;50.130;8.710;2023-05-03T02:11:14;101174.38;;;9.23;54.44
40954;BME280;26686;50.130;8.710;2023-05-03T02:16:18;101183.78;;;9.28;54.28
40954;BME280;26686;50.130;8.710;2023-05-03T02:21:20;101170.97;;;9.20;54.55
40954;BME280;26686;50.130;8.710;2023-05-03T02:26:21;101189.47;;;9.22;54.31
40954;BME280;26686;50.130;8.710;2023-05-03T02:31:23;101185.47;;;9.15;54.28
40954;BME280;26686;50.130;8.710;2023-05-03T02:36:25;101188.97;;;9.15;54.43
40954;BME280;26686;50.130;8.710;2023-05-03T02:41:26;101205.97;;;9.13;54.52
40954;BME280;26686;50.130;8.710;2023-05-03T02:46:28;101196.72;;;9.04;54.39
40954;BME280;26686;50.130;8.710;2023-05-03T02:51:30;101195.00;;;9.03;54.40
40954;BME280;26686;50.130;8.710;2023-05-03T02:56:32;101184.47;;;9.01;53.96
40954;BME280;26686;50.130;8.710;2023-05-03T03:01:34;101188.34;;;8.96;54.16
40954;BME280;26686;50.130;8.710;2023-05-03T03:06:35;101185.88;;;8.93;54.34
40954;BME280;26686;50.130;8.710;2023-05-03T03:11:37;101173.88;;;8.85;54.32
40954;BME280;26686;50.130;8.710;2023-05-03T03:16:38;101180.63;;;8.77;54.52
40954;BME280;26686;50.130;8.710;2023-05-03T03:21:39;101193.53;;;8.83;54.47
40954;BME280;26686;50.130;8.710;2023-05-03T03:26:41;101187.72;;;8.76;54.33
40954;BME280;26686;50.130;8.710;2023-05-03T03:31:43;101179.53;;;8.65;54.63
40954;BME280;26686;50.130;8.710;2023-05-03T03:36:45;101181.13;;;8.67;54.67
40954;BME280;26686;50.130;8.710;2023-05-03T03:41:46;101172.69;;;8.61;55.02
40954;BME280;26686;50.130;8.710;2023-05-03T03:46:47;101176.72;;;8.52;54.74
40954;BME280;26686;50.130;8.710;2023-05-03T03:51:51;101192.72;;;8.51;54.94
40954;BME280;26686;50.130;8.710;2023-05-03T03:56:52;101194.44;;;8.52;55.47
40954;BME280;26686;50.130;8.710;2023-05-03T04:01:53;101182.47;;;8.44;54.92
40954;BME280;26686;50.130;8.710;2023-05-03T04:06:55;101192.38;;;8.41;55.35
40954;BME280;26686;50.130;8.710;2023-05-03T04:11:56;101193.56;;;8.35;55.25
40954;BME280;26686;50.130;8.710;2023-05-03T04:16:57;101206.03;;;8.33;55.73
40954;BME280;26686;50.130;8.710;2023-05-03T04:21:59;101214.63;;;8.38;55.19
40954;BME280;26686;50.130;8.710;2023-05-03T04:27:00;101220.84;;;8.37;55.25
40954;BME280;26686;50.130;8.710;2023-05-03T04:32:04;101204.19;;;8.35;55.53
40954;BME280;26686;50.130;8.710;2023-05-03T04:37:07;101220.75;;;8.39;55.70
40954;BME280;26686;50.130;8.710;2023-05-03T04:42:10;101222.63;;;8.21;56.25
40954;BME280;26686;50.130;8.710;2023-05-03T04:47:12;101221.94;;;8.33;55.54
40954;BME280;26686;50.130;8.710;2023-05-03T04:52:13;101225.56;;;8.32;55.92
40954;BME280;26686;50.130;8.710;2023-05-03T04:57:15;101227.03;;;8.38;55.73
40954;BME280;26686;50.130;8.710;2023-05-03T05:02:16;101225.75;;;8.45;55.65
40954;BME280;26686;50.130;8.710;2023-05-03T05:07:18;101231.06;;;8.45;55.47
40954;BME280;26686;50.130;8.710;2023-05-03T05:12:19;101228.94;;;8.52;55.53
40954;BME280;26686;50.130;8.710;2023-05-03T05:17:22;101232.16;;;8.57;55.37
40954;BME280;26686;50.130;8.710;2023-05-03T05:22:24;101235.44;;;8.62;55.45
40954;BME280;26686;50.130;8.710;2023-05-03T05:27:25;101236.88;;;8.67;55.44
40954;BME280;26686;50.130;8.710;2023-05-03T05:32:27;101238.22;;;8.75;55.08
40954;BME280;26686;50.130;8.710;2023-05-03T05:37:28;101237.03;;;8.80;54.70
40954;BME280;26686;50.130;8.710;2023-05-03T05:42:30;101221.69;;;8.85;54.83
40954;BME280;26686;50.130;8.710;2023-05-03T05:47:32;101231.25;;;9.04;54.74
40954;BME280;26686;50.130;8.710;2023-05-03T05:52:33;101238.88;;;9.25;53.88
40954;BME280;26686;50.130;8.710;2023-05-03T05:57:35;101226.09;;;9.31;53.42
40954;BME280;26686;50.130;8.710;2023-05-03T06:02:36;101234.19;;;9.44;53.34
40954;BME280;26686;50.130;8.710;2023-05-03T06:07:38;101230.63;;;9.60;53.00
40954;BME280;26686;50.130;8.710;2023-05-03T06:12:39;101238.97;;;9.68;52.76
40954;BME280;26686;50.130;8.710;2023-05-03T06:17:41;101219.41;;;9.69;51.99
40954;BME280;26686;50.130;8.710;2023-05-03T06:22:42;101232.16;;;9.93;52.11
40954;BME280;26686;50.130;8.710;2023-05-03T06:27:43;101225.03;;;10.07;51.51
40954;BME280;26686;50.130;8.710;2023-05-03T06:32:46;101230.41;;;10.20;51.69
40954;BME280;26686;50.130;8.710;2023-05-03T06:37:48;101233.25;;;10.32;51.70
40954;BME280;26686;50.130;8.710;2023-05-03T06:42:49;101258.50;;;10.53;50.80
40954;BME280;26686;50.130;8.710;2023-05-03T06:47:51;101247.06;;;10.66;50.83
40954;BME280;26686;50.130;8.710;2023-05-03T06:52:53;101241.16;;;10.75;51.04
40954;BME280;26686;50.130;8.710;2023-05-03T06:57:54;101233.66;;;10.94;50.38
40954;BME280;26686;50.130;8.710;2023-05-03T07:02:55;101231.03;;;11.07;49.77
40954;BME280;26686;50.130;8.710;2023-05-03T07:07:57;101218.06;;;11.28;50.06
40954;BME280;26686;50.130;8.710;2023-05-03T07:12:58;101217.88;;;11.44;49.16
40954;BME280;26686;50.130;8.710;2023-05-03T07:18:00;101212.44;;;11.46;49.71
40954;BME280;26686;50.130;8.710;2023-05-03T07:23:01;101232.69;;;11.61;49.95
40954;BME280;26686;50.130;8.710;2023-05-03T07:28:03;101220.22;;;11.88;48.96
40954;BME280;26686;50.130;8.710;2023-05-03T07:33:04;101214.25;;;11.97;49.33
40954;BME280;26686;50.130;8.710;2023-05-03T07:38:06;101215.94;;;12.11;49.35
40954;BME280;26686;50.130;8.710;2023-05-03T07:43:08;101218.63;;;12.35;48.67
40954;BME280;26686;50.130;8.710;2023-05-03T07:48:12;101223.72;;;12.51;48.52
40954;BME280;26686;50.130;8.710;2023-05-03T07:53:14;101221.91;;;12.76;48.03
40954;BME280;26686;50.130;8.710;2023-05-03T07:58:15;101221.84;;;12.88;47.38
40954;BME280;26686;50.130;8.710;2023-05-03T08:03:18;101217.28;;;13.02;47.07
40954;BME280;26686;50.130;8.710;2023-05-03T08:08:20;101199.97;;;13.19;46.90
40954;BME280;26686;50.130;8.710;2023-05-03T08:13:21;101202.69;;;13.30;46.97
40954;BME280;26686;50.130;8.710;2023-05-03T08:18:23;101192.81;;;13.31;46.81
40954;BME280;26686;50.130;8.710;2023-05-03T08:23:25;101196.41;;;13.54;46.56
40954;BME280;26686;50.130;8.710;2023-05-03T08:28:26;101200.44;;;13.82;46.20
40954;BME280;26686;50.130;8.710;2023-05-03T08:33:28;101204.34;;;14.01;45.17
40954;BME280;26686;50.130;8.710;2023-05-03T08:38:29;101192.78;;;14.11;45.63
40954;BME280;26686;50.130;8.710;2023-05-03T08:43:36;101190.31;;;14.31;45.00
40954;BME280;26686;50.130;8.710;2023-05-03T08:48:40;101194.88;;;14.63;44.97
40954;BME280;26686;50.130;8.710;2023-05-03T08:53:43;101198.38;;;14.75;44.46
40954;BME280;26686;50.130;8.710;2023-05-03T08:58:45;101205.66;;;15.05;44.30
40954;BME280;26686;50.130;8.710;2023-05-03T09:03:50;101193.34;;;15.24;43.72
40954;BME280;26686;50.130;8.710;2023-05-03T09:08:53;101197.69;;;15.36;42.76
40954;BME280;26686;50.130;8.710;2023-05-03T09:14:16;101191.38;;;15.68;42.99
40954;BME280;26686;50.130;8.710;2023-05-03T09:19:17;101192.91;;;15.92;42.66
40954;BME280;26686;50.130;8.710;2023-05-03T09:24:20;101192.38;;;16.07;41.70
40954;BME280;26686;50.130;8.710;2023-05-03T09:29:30;101189.50;;;16.40;40.19
40954;BME280;26686;50.130;8.710;2023-05-03T09:34:32;101178.63;;;16.51;40.16
40954;BME280;26686;50.130;8.710;2023-05-03T09:39:33;101171.00;;;16.76;39.03
40954;BME280;26686;50.130;8.710;2023-05-03T09:44:47;101159.41;;;17.05;37.17
40954;BME280;26686;50.130;8.710;2023-05-03T09:49:49;101167.00;;;17.39;36.38
40954;BME280;26686;50.130;8.710;2023-05-03T09:54:51;101160.88;;;17.84;35.65
40954;BME280;26686;50.130;8.710;2023-05-03T09:59:54;101142.16;;;17.92;36.30
40954;BME280;26686;50.130;8.710;2023-05-03T10:04:56;101160.63;;;18.51;34.87
40954;BME280;26686;50.130;8.710;2023-05-03T10:09:59;101149.28;;;18.93;34.85
40954;BME280;26686;50.130;8.710;2023-05-03T10:15:04;101127.53;;;19.21;34.75
40954;BME280;26686;50.130;8.710;2023-05-03T10:20:13;101131.25;;;19.81;34.22
40954;BME280;26686;50.130;8.710;2023-05-03T10:25:15;101131.78;;;21.01;31.37
40954;BME280;26686;50.130;8.710;2023-05-03T10:30:27;101130.44;;;22.64;28.58
40954;BME280;26686;50.130;8.710;2023-05-03T10:35:31;101129.09;;;22.05;29.37
40954;BME280;26686;50.130;8.710;2023-05-03T10:40:41;101129.53;;;21.85;30.15
40954;BME280;26686;50.130;8.710;2023-05-03T10:45:43;101130.19;;;21.96;29.81
40954;BME280;26686;50.130;8.710;2023-05-03T10:50:48;101119.88;;;22.22;29.59
40954;BME280;26686;50.130;8.710;2023-05-03T10:56:07;101124.38;;;22.62;28.34
40954;BME280;26686;50.130;8.710;2023-05-03T11:01:10;101112.69;;;22.61;29.21
40954;BME280;26686;50.130;8.710;2023-05-03T11:06:34;101122.84;;;22.82;27.94
40954;BME280;26686;50.130;8.710;2023-05-03T11:11:38;101102.72;;;23.29;27.81
40954;BME280;26686;50.130;8.710;2023-05-03T11:16:40;101091.56;;;23.54;27.40
40954;BME280;26686;50.130;8.710;2023-05-03T11:21:48;101093.66;;;22.99;27.07
40954;BME280;26686;50.130;8.710;2023-05-03T11:26:50;101083.03;;;23.12;26.33
40954;BME280;26686;50.130;8.710;2023-05-03T11:31:51;101070.69;;;23.40;28.27
40954;BME280;26686;50.130;8.710;2023-05-03T11:36:53;101067.59;;;23.43;26.54
40954;BME280;26686;50.130;8.710;2023-05-03T11:42:02;101073.94;;;23.65;27.00
40954;BME280;26686;50.130;8.710;2023-05-03T11:47:04;101083.09;;;23.79;26.60
40954;BME280;26686;50.130;8.710;2023-05-03T11:52:06;101071.47;;;23.85;26.59
40954;BME280;26686;50.130;8.710;2023-05-03T11:57:11;101062.47;;;23.33;26.50
40954;BME280;26686;50.130;8.710;2023-05-03T12:02:15;101065.97;;;23.63;26.55
40954;BME280;26686;50.130;8.710;2023-05-03T12:07:16;101056.69;;;23.73;26.45
40954;BME280;26686;50.130;8.710;2023-05-03T12:12:22;101042.31;;;23.27;25.92
40954;BME280;26686;50.130;8.710;2023-05-03T12:17:32;101042.50;;;23.11;26.94
40954;BME280;26686;50.130;8.710;2023-05-03T12:22:38;101031.25;;;23.14;27.27
40954;BME280;26686;50.130;8.710;2023-05-03T12:27:40;101025.63;;;23.01;27.55
40954;BME280;26686;50.130;8.710;2023-05-03T12:32:41;101022.25;;;22.99;26.88
40954;BME280;26686;50.130;8.710;2023-05-03T12:37:45;101018.66;;;22.83;27.12
40954;BME280;26686;50.130;8.710;2023-05-03T12:42:49;101016.38;;;23.10;27.08
40954;BME280;26686;50.130;8.710;2023-05-03T12:47:51;101009.91;;;23.11;26.98
40954;BME280;26686;50.130;8.710;2023-05-03T12:52:53;101009.78;;;22.89;27.38
40954;BME280;26686;50.130;8.710;2023-05-03T12:57:55;100989.94;;;22.74;26.33
40954;BME280;26686;50.130;8.710;2023-05-03T13:03:16;100991.72;;;22.82;27.44
40954;BME280;26686;50.130;8.710;2023-05-03T13:08:22;100986.84;;;22.77;27.95
40954;BME280;26686;50.130;8.710;2023-05-03T13:18:35;100963.47;;;22.76;29.62
40954;BME280;26686;50.130;8.710;2023-05-03T13:23:37;100952.69;;;22.83;28.71
40954;BME280;26686;50.130;8.710;2023-05-03T13:28:38;100955.41;;;22.83;29.34
40954;BME280;26686;50.130;8.710;2023-05-03T13:33:43;100933.63;;;22.61;28.51
40954;BME280;26686;50.130;8.710;2023-05-03T13:38:44;100935.28;;;22.62;28.51
40954;BME280;26686;50.130;8.710;2023-05-03T13:43:47;100934.56;;;22.53;28.50
40954;BME280;26686;50.130;8.710;2023-05-03T13:48:48;100921.81;;;22.39;28.78
40954;BME280;26686;50.130;8.710;2023-05-03T13:53:50;100922.34;;;22.11;29.14
40954;BME280;26686;50.130;8.710;2023-05-03T13:58:51;100910.59;;;22.04;29.07
40954;BME280;26686;50.130;8.710;2023-05-03T14:03:54;100909.53;;;22.05;28.39
40954;BME280;26686;50.130;8.710;2023-05-03T14:08:55;100903.25;;;21.89;28.44
40954;BME280;26686;50.130;8.710;2023-05-03T14:13:58;100889.41;;;21.84;28.54
40954;BME280;26686;50.130;8.710;2023-05-03T14:19:00;100901.94;;;21.62;29.36
40954;BME280;26686;50.130;8.710;2023-05-03T14:24:01;100897.34;;;21.63;29.27
40954;BME280;26686;50.130;8.710;2023-05-03T14:29:03;100896.09;;;21.42;29.25
40954;BME280;26686;50.130;8.710;2023-05-03T14:34:05;100889.41;;;21.30;29.80
40954;BME280;26686;50.130;8.710;2023-05-03T14:39:07;100874.59;;;21.17;30.03
40954;BME280;26686;50.130;8.710;2023-05-03T14:44:08;100866.22;;;21.04;29.78
40954;BME280;26686;50.130;8.710;2023-05-03T14:49:09;100873.22;;;20.90;30.49
40954;BME280;26686;50.130;8.710;2023-05-03T14:54:11;100873.06;;;20.83;30.83
40954;BME280;26686;50.130;8.710;2023-05-03T14:59:12;100862.66;;;20.72;30.21
40954;BME280;26686;50.130;8.710;2023-05-03T15:04:13;100864.69;;;20.62;30.08
40954;BME280;26686;50.130;8.710;2023-05-03T15:09:15;100850.16;;;20.55;30.55
40954;BME280;26686;50.130;8.710;2023-05-03T15:14:17;100846.81;;;20.53;30.90
40954;BME280;26686;50.130;8.710;2023-05-03T15:19:19;100847.81;;;20.52;31.64
40954;BME280;26686;50.130;8.710;2023-05-03T15:24:21;100840.22;;;20.47;31.30
40954;BME280;26686;50.130;8.710;2023-05-03T15:29:23;100841.78;;;20.33;30.21
40954;BME280;26686;50.130;8.710;2023-05-03T15:34:24;100839.78;;;20.19;30.50
40954;BME280;26686;50.130;8.710;2023-05-03T15:39:26;100828.00;;;20.03;31.65
40954;BME280;26686;50.130;8.710;2023-05-03T15:44:27;100820.72;;;20.04;31.63
40954;BME280;26686;50.130;8.710;2023-05-03T15:49:28;100812.78;;;20.02;31.29
40954;BME280;26686;50.130;8.710;2023-05-03T15:54:30;100819.25;;;20.01;31.11
40954;BME280;26686;50.130;8.710;2023-05-03T15:59:31;100814.69;;;19.85;31.97
40954;BME280;26686;50.130;8.710;2023-05-03T16:04:33;100819.59;;;19.90;31.71
40954;BME280;26686;50.130;8.710;2023-05-03T16:09:37;100806.41;;;19.87;31.92
40954;BME280;26686;50.130;8.710;2023-05-03T16:14:38;100816.56;;;19.85;31.98
40954;BME280;26686;50.130;8.710;2023-05-03T16:19:39;100796.78;;;19.76;32.09
40954;BME280;26686;50.130;8.710;2023-05-03T16:24:41;100806.41;;;19.78;32.49
40954;BME280;26686;50.130;8.710;2023-05-03T16:29:42;100805.41;;;19.71;32.23
40954;BME280;26686;50.130;8.710;2023-05-03T16:34:43;100796.44;;;19.63;32.22
40954;BME280;26686;50.130;8.710;2023-05-03T16:39:45;100792.22;;;19.60;32.06
40954;BME280;26686;50.130;8.710;2023-05-03T16:44:46;100797.63;;;19.60;32.21
40954;BME280;26686;50.130;8.710;2023-05-03T16:49:48;100790.22;;;19.46;32.92
40954;BME280;26686;50.130;8.710;2023-05-03T16:54:49;100788.34;;;19.54;32.52
40954;BME280;26686;50.130;8.710;2023-05-03T16:59:51;100796.78;;;19.51;32.54
40954;BME280;26686;50.130;8.710;2023-05-03T17:04:52;100802.69;;;19.47;32.38
40954;BME280;26686;50.130;8.710;2023-05-03T17:09:54;100784.47;;;19.32;32.81
40954;BME280;26686;50.130;8.710;2023-05-03T17:14:55;100789.53;;;19.35;32.80
40954;BME280;26686;50.130;8.710;2023-05-03T17:19:57;100781.63;;;19.34;32.96
40954;BME280;26686;50.130;8.710;2023-05-03T17:24:58;100778.06;;;19.25;33.31
40954;BME280;26686;50.130;8.710;2023-05-03T17:29:59;100780.41;;;19.20;32.80
40954;BME280;26686;50.130;8.710;2023-05-03T17:35:01;100791.53;;;19.17;33.23
40954;BME280;26686;50.130;8.710;2023-05-03T17:40:03;100772.97;;;19.05;33.46
40954;BME280;26686;50.130;8.710;2023-05-03T17:45:07;100778.00;;;19.00;33.93
40954;BME280;26686;50.130;8.710;2023-05-03T17:50:09;100785.44;;;18.90;33.63
40954;BME280;26686;50.130;8.710;2023-05-03T17:55:13;100787.72;;;18.85;34.27
40954;BME280;26686;50.130;8.710;2023-05-03T18:00:16;100776.25;;;18.75;33.58
40954;BME280;26686;50.130;8.710;2023-05-03T18:05:19;100784.00;;;18.69;33.94
40954;BME280;26686;50.130;8.710;2023-05-03T18:10:20;100781.41;;;18.60;34.38
40954;BME280;26686;50.130;8.710;2023-05-03T18:15:22;100781.03;;;18.46;34.39
40954;BME280;26686;50.130;8.710;2023-05-03T18:20:24;100783.53;;;18.40;35.17
40954;BME280;26686;50.130;8.710;2023-05-03T18:25:26;100789.75;;;18.32;34.71
40954;BME280;26686;50.130;8.710;2023-05-03T18:30:28;100786.81;;;18.25;37.29
40954;BME280;26686;50.130;8.710;2023-05-03T18:35:29;100801.31;;;18.24;35.45
40954;BME280;26686;50.130;8.710;2023-05-03T18:40:31;100812.59;;;18.19;36.36
40954;BME280;26686;50.130;8.710;2023-05-03T18:45:38;100815.22;;;18.11;35.98
40954;BME280;26686;50.130;8.710;2023-05-03T18:50:40;100818.72;;;18.04;36.27
40954;BME280;26686;50.130;8.710;2023-05-03T18:55:44;100802.81;;;17.92;36.13
40954;BME280;26686;50.130;8.710;2023-05-03T19:00:45;100806.41;;;17.83;37.10
40954;BME280;26686;50.130;8.710;2023-05-03T19:05:47;100818.50;;;17.79;36.76
40954;BME280;26686;50.130;8.710;2023-05-03T19:10:48;100819.28;;;17.71;37.64
40954;BME280;26686;50.130;8.710;2023-05-03T19:15:49;100823.75;;;17.62;37.42
40954;BME280;26686;50.130;8.710;2023-05-03T19:20:51;100834.25;;;17.47;37.22
40954;BME280;26686;50.130;8.710;2023-05-03T19:25:52;100831.94;;;17.35;37.94
40954;BME280;26686;50.130;8.710;2023-05-03T19:30:54;100827.47;;;17.25;38.40
40954;BME280;26686;50.130;8.710;2023-05-03T19:35:56;100827.31;;;17.09;38.71
40954;BME280;26686;50.130;8.710;2023-05-03T19:40:58;100841.06;;;17.06;39.03
40954;BME280;26686;50.130;8.710;2023-05-03T19:45:59;100839.44;;;16.95;39.11
40954;BME280;26686;50.130;8.710;2023-05-03T19:51:02;100834.50;;;16.90;39.54
40954;BME280;26686;50.130;8.710;2023-05-03T19:56:06;100826.59;;;16.79;39.77
40954;BME280;26686;50.130;8.710;2023-05-03T20:01:09;100834.56;;;16.71;39.93
40954;BME280;26686;50.130;8.710;2023-05-03T20:06:10;100839.53;;;16.66;39.96
40954;BME280;26686;50.130;8.710;2023-05-03T20:11:12;100837.06;;;16.54;40.54
40954;BME280;26686;50.130;8.710;2023-05-03T20:16:13;100838.66;;;16.47;40.34
40954;BME280;26686;50.130;8.710;2023-05-03T20:21:15;100841.34;;;16.37;40.31
40954;BME280;26686;50.130;8.710;2023-05-03T20:26:16;100842.50;;;16.35;41.02
40954;BME280;26686;50.130;8.710;2023-05-03T20:31:19;100833.66;;;16.24;40.88
40954;BME280;26686;50.130;8.710;2023-05-03T20:36:20;100829.41;;;16.22;40.79
40954;BME280;26686;50.130;8.710;2023-05-03T20:41:22;100831.13;;;16.13;41.10
40954;BME280;26686;50.130;8.710;2023-05-03T20:46:24;100820.56;;;16.02;41.06
40954;BME280;26686;50.130;8.710;2023-05-03T20:51:26;100821.84;;;15.98;41.31
40954;BME280;26686;50.130;8.710;2023-05-03T20:56:27;100817.78;;;15.84;41.20
40954;BME280;26686;50.130;8.710;2023-05-03T21:01:29;100825.50;;;15.77;41.41
40954;BME280;26686;50.130;8.710;2023-05-03T21:06:31;100822.41;;;15.72;41.51
40954;BME280;26686;50.130;8.710;2023-05-03T21:11:35;100819.72;;;15.62;41.78
40954;BME280;26686;50.130;8.710;2023-05-03T21:16:36;100828.06;;;15.59;41.89
40954;BME280;26686;50.130;8.710;2023-05-03T21:21:38;100824.41;;;15.50;41.82
40954;BME280;26686;50.130;8.710;2023-05-03T21:26:43;100827.50;;;15.46;42.10
40954;BME280;26686;50.130;8.710;2023-05-03T21:31:45;100818.47;;;15.37;42.36
40954;BME280;26686;50.130;8.710;2023-05-03T21:36:46;100833.16;;;15.33;42.36
40954;BME280;26686;50.130;8.710;2023-05-03T21:41:48;100823.53;;;15.20;42.46
40954;BME280;26686;50.130;8.710;2023-05-03T21:46:49;100818.44;;;15.17;42.34
40954;BME280;26686;50.130;8.710;2023-05-03T21:51:51;100811.97;;;15.10;42.46
40954;BME280;26686;50.130;8.710;2023-05-03T21:56:52;100819.56;;;15.05;42.63
40954;BME280;26686;50.130;8.710;2023-05-03T22:01:54;100803.34;;;14.97;42.89
40954;BME280;26686;50.130;8.710;2023-05-03T22:06:55;100806.31;;;14.94;42.93
40954;BME280;26686;50.130;8.710;2023-05-03T22:11:57;100803.19;;;14.89;43.16
40954;BME280;26686;50.130;8.710;2023-05-03T22:17:00;100812.75;;;14.81;43.39
40954;BME280;26686;50.130;8.710;2023-05-03T22:22:02;100803.19;;;14.79;43.57
40954;BME280;26686;50.130;8.710;2023-05-03T22:27:03;100807.94;;;14.75;43.37
40954;BME280;26686;50.130;8.710;2023-05-03T22:32:05;100809.88;;;14.63;43.96
40954;BME280;26686;50.130;8.710;2023-05-03T22:37:07;100811.53;;;14.55;44.22
40954;BME280;26686;50.130;8.710;2023-05-03T22:42:08;100806.97;;;14.45;44.03
40954;BME280;26686;50.130;8.710;2023-05-03T22:47:10;100796.25;;;14.36;44.38
40954;BME280;26686;50.130;8.710;2023-05-03T22:52:11;100799.47;;;14.29;44.71
40954;BME280;26686;50.130;8.710;2023-05-03T22:57:12;100798.44;;;14.21;44.83
40954;BME280;26686;50.130;8.710;2023-05-03T23:02:14;100800.41;;;14.19;44.80
40954;BME280;26686;50.130;8.710;2023-05-03T23:07:15;100797.66;;;14.09;45.09
40954;BME280;26686;50.130;8.710;2023-05-03T23:12:16;100799.03;;;14.03;45.22
40954;BME280;26686;50.130;8.710;2023-05-03T23:17:18;100794.75;;;13.91;45.65
40954;BME280;26686;50.130;8.710;2023-05-03T23:22:20;100803.03;;;13.88;45.85
40954;BME280;26686;50.130;8.710;2023-05-03T23:27:21;100792.25;;;13.78;45.69
40954;BME280;26686;50.130;8.710;2023-05-03T23:32:23;100791.41;;;13.77;45.98
40954;BME280;26686;50.130;8.710;2023-05-03T23:37:25;100786.88;;;13.68;46.27
40954;BME280;26686;50.130;8.710;2023-05-03T23:42:27;100776.09;;;13.58;46.22
40954;BME280;26686;50.130;8.710;2023-05-03T23:47:28;100793.25;;;13.56;46.36
40954;BME280;26686;50.130;8.710;2023-05-03T23:52:29;100782.09;;;13.51;46.37
40954;BME280;26686;50.130;8.710;2023-05-03T23:57:31;100781.63;;;13.46;46.54
